createdAt,value
2023-05-19T00:04:21.992Z,11.39
2023-05-19T00:09:31.933Z,11.36
2023-05-19T00:14:40.886Z,11.32
2023-05-19T00:19:48.430Z,11.29
2023-05-19T00:24:55.881Z,11.27
2023-05-19T00:30:03.574Z,11.24
2023-05-19T00:35:12.958Z,11.22
2023-05-19T00:40:21.273Z,11.20
2023-05-19T00:45:29.521Z,11.17
2023-05-19T00:50:37.002Z,11.16
2023-05-19T00:55:44.607Z,11.13
2023-05-19T01:00:52.822Z,11.10
2023-05-19T01:06:05.535Z,11.08
2023-05-19T01:11:13.554Z,11.06
2023-05-19T01:16:30.962Z,11.04
2023-05-19T01:22:13.481Z,11.02
2023-05-19T01:27:28.125Z,10.99
2023-05-19T01:32:37.936Z,10.97
2023-05-19T01:37:47.176Z,10.94
2023-05-19T01:42:58.027Z,10.92
2023-05-19T01:48:10.623Z,10.90
2023-05-19T01:53:20.481Z,10.88
2023-05-19T01:58:40.433Z,10.86
2023-05-19T02:04:01.432Z,10.84
2023-05-19T02:09:14.233Z,10.81
2023-05-19T02:14:27.198Z,10.81
2023-05-19T02:19:41.486Z,11.01
2023-05-19T02:24:52.210Z,11.17
2023-05-19T02:30:00.228Z,11.27
2023-05-19T02:35:08.843Z,11.36
2023-05-19T02:40:17.196Z,11.43
2023-05-19T02:45:24.881Z,11.46
2023-05-19T02:50:32.850Z,11.48
2023-05-19T02:55:40.680Z,11.50
2023-05-19T03:00:48.427Z,11.35
2023-05-19T03:05:56.393Z,11.17
2023-05-19T03:11:04.260Z,11.05
2023-05-19T03:16:12.285Z,11.01
2023-05-19T03:21:20.552Z,11.12
2023-05-19T03:26:29.762Z,11.03
2023-05-19T03:31:37.956Z,10.91
2023-05-19T03:36:46.001Z,10.83
2023-05-19T03:41:56.936Z,10.78
2023-05-19T03:47:04.764Z,10.75
2023-05-19T03:52:37.206Z,10.72
2023-05-19T03:57:53.115Z,10.72
2023-05-19T04:03:01.303Z,10.71
2023-05-19T04:08:09.274Z,10.73
2023-05-19T04:13:16.994Z,10.75
2023-05-19T04:18:25.849Z,10.77
2023-05-19T04:23:34.753Z,10.81
2023-05-19T04:28:42.888Z,10.84
2023-05-19T04:33:50.710Z,10.88
2023-05-19T04:39:03.092Z,10.92
2023-05-19T04:44:11.547Z,10.97
2023-05-19T04:49:19.712Z,11.02
2023-05-19T04:54:27.694Z,11.07
2023-05-19T04:59:36.626Z,11.13
2023-05-19T05:04:47.189Z,11.18
2023-05-19T05:09:55.126Z,11.24
2023-05-19T05:15:04.042Z,11.29
2023-05-19T05:20:14.559Z,11.35
2023-05-19T05:25:25.115Z,11.41
2023-05-19T05:30:32.991Z,11.46
2023-05-19T05:35:40.664Z,11.52
2023-05-19T05:40:49.223Z,11.57
2023-05-19T05:45:57.530Z,11.61
2023-05-19T05:51:07.383Z,11.66
2023-05-19T05:56:17.238Z,11.70
2023-05-19T06:01:31.607Z,11.73
2023-05-19T06:06:40.264Z,11.76
2023-05-19T06:11:49.274Z,11.79
2023-05-19T06:16:57.466Z,11.81
2023-05-19T06:22:05.605Z,11.84
2023-05-19T06:27:14.392Z,11.86
2023-05-19T06:32:22.569Z,11.90
2023-05-19T06:37:30.397Z,11.95
2023-05-19T06:42:38.182Z,11.99
2023-05-19T06:47:55.165Z,12.05
2023-05-19T06:53:03.257Z,12.11
2023-05-19T06:58:10.912Z,12.18
2023-05-19T07:03:19.643Z,12.24
2023-05-19T07:08:28.254Z,12.29
2023-05-19T07:13:35.999Z,12.35
2023-05-19T07:18:44.643Z,12.41
2023-05-19T07:23:52.053Z,12.48
2023-05-19T07:29:00.248Z,12.55
2023-05-19T07:34:07.555Z,12.61
2023-05-19T07:39:15.234Z,12.68
2023-05-19T07:44:23.213Z,12.75
2023-05-19T07:49:31.292Z,12.80
2023-05-19T07:54:38.949Z,12.86
2023-05-19T07:59:46.505Z,12.91
2023-05-19T08:04:54.905Z,12.95
2023-05-19T08:10:02.679Z,13.00
2023-05-19T08:15:12.174Z,13.03
2023-05-19T08:20:19.812Z,13.06
2023-05-19T08:25:31.609Z,13.10
2023-05-19T08:30:39.774Z,13.14
2023-05-19T08:35:47.597Z,13.18
2023-05-19T08:40:55.512Z,13.23
2023-05-19T08:46:07.481Z,13.29
2023-05-19T08:51:16.579Z,13.35
2023-05-19T08:56:25.736Z,13.40
2023-05-19T09:01:34.126Z,13.45
2023-05-19T09:06:42.775Z,13.49
2023-05-19T09:11:51.808Z,13.53
2023-05-19T09:16:59.543Z,13.58
2023-05-19T09:22:07.343Z,13.63
2023-05-19T09:27:23.473Z,13.68
2023-05-19T09:32:32.118Z,13.74
2023-05-19T09:37:40.996Z,13.78
2023-05-19T09:42:49.569Z,13.82
2023-05-19T09:47:57.414Z,13.87
2023-05-19T09:53:05.906Z,13.93
2023-05-19T09:58:18.778Z,13.98
2023-05-19T10:03:27.332Z,14.03
2023-05-19T10:08:36.294Z,14.05
2023-05-19T10:13:44.976Z,14.07
2023-05-19T10:18:54.914Z,14.08
2023-05-19T10:24:02.844Z,14.07
2023-05-19T10:29:10.852Z,14.07
2023-05-19T10:34:51.337Z,14.06
2023-05-19T10:39:59.792Z,14.06
2023-05-19T10:45:15.565Z,14.06
2023-05-19T10:50:23.959Z,14.06
2023-05-19T10:55:52.541Z,14.06
2023-05-19T11:01:09.571Z,14.06
2023-05-19T11:06:30.161Z,14.07
2023-05-19T11:11:50.317Z,14.07
2023-05-19T11:17:01.221Z,14.07
2023-05-19T11:22:16.238Z,14.08
2023-05-19T11:27:26.934Z,14.09
2023-05-19T11:32:36.447Z,14.10
2023-05-19T11:37:44.683Z,14.11
2023-05-19T11:42:52.992Z,14.12
2023-05-19T11:48:02.995Z,14.13
2023-05-19T11:53:13.730Z,14.14
2023-05-19T11:58:27.646Z,14.17
2023-05-19T12:03:35.447Z,14.20
2023-05-19T12:08:43.327Z,14.22
2023-05-19T12:13:55.107Z,14.25
2023-05-19T12:19:02.787Z,14.29
2023-05-19T12:24:11.248Z,14.33
2023-05-19T12:29:18.895Z,14.36
2023-05-19T12:34:27.207Z,14.40
2023-05-19T12:39:35.310Z,14.43
2023-05-19T12:44:48.143Z,14.45
2023-05-19T12:50:05.124Z,14.47
2023-05-19T12:55:14.985Z,14.47
2023-05-19T13:00:26.123Z,14.48
2023-05-19T13:05:35.463Z,14.49
2023-05-19T13:10:44.533Z,14.49
2023-05-19T13:15:52.181Z,14.50
2023-05-19T13:21:00.384Z,14.49
2023-05-19T13:26:09.014Z,14.48
2023-05-19T13:31:16.739Z,14.48
2023-05-19T13:36:24.666Z,14.47
2023-05-19T13:41:32.973Z,14.47
2023-05-19T13:46:45.566Z,14.46
2023-05-19T13:52:02.071Z,14.45
2023-05-19T13:57:10.208Z,14.44
2023-05-19T14:02:18.558Z,14.45
2023-05-19T14:07:26.482Z,14.44
2023-05-19T14:12:45.104Z,14.43
2023-05-19T14:18:03.597Z,14.42
2023-05-19T14:23:12.814Z,14.41
2023-05-19T14:28:20.608Z,14.41
2023-05-19T14:33:32.730Z,14.40
2023-05-19T14:38:42.826Z,14.39
2023-05-19T14:43:50.756Z,14.40
2023-05-19T14:48:58.437Z,14.42
2023-05-19T14:54:06.602Z,14.43
2023-05-19T14:59:14.549Z,14.45
2023-05-19T15:04:22.165Z,14.46
2023-05-19T15:09:29.753Z,14.48
2023-05-19T15:14:37.459Z,14.51
2023-05-19T15:19:45.432Z,14.53
2023-05-19T15:24:53.320Z,14.55
2023-05-19T15:30:00.978Z,14.56
2023-05-19T15:35:10.253Z,14.57
2023-05-19T15:40:19.213Z,14.58
2023-05-19T15:45:27.653Z,14.58
2023-05-19T15:50:36.042Z,14.58
2023-05-19T15:55:44.030Z,14.58
2023-05-19T16:00:51.653Z,14.58
2023-05-19T16:05:59.622Z,14.57
2023-05-19T16:11:10.550Z,14.57
2023-05-19T16:16:18.229Z,14.57
2023-05-19T16:21:26.726Z,14.56
2023-05-19T16:26:34.908Z,14.56
2023-05-19T16:31:43.126Z,14.56
2023-05-19T16:36:50.869Z,14.56
2023-05-19T16:41:58.845Z,14.55
2023-05-19T16:47:06.941Z,14.55
2023-05-19T16:52:16.298Z,14.55
2023-05-19T16:57:24.227Z,14.53
2023-05-19T17:02:32.389Z,14.53
2023-05-19T17:07:40.640Z,14.52
2023-05-19T17:12:48.492Z,14.51
2023-05-19T17:17:56.086Z,14.49
2023-05-19T17:23:03.629Z,14.48
2023-05-19T17:28:11.206Z,14.45
2023-05-19T17:33:19.282Z,14.43
2023-05-19T17:38:26.956Z,14.42
2023-05-19T17:43:35.720Z,14.39
2023-05-19T17:48:43.738Z,14.37
2023-05-19T17:53:52.664Z,14.36
2023-05-19T17:59:03.701Z,14.34
2023-05-19T18:04:14.623Z,14.32
2023-05-19T18:09:29.143Z,14.31
2023-05-19T18:14:39.602Z,14.30
2023-05-19T18:19:47.217Z,14.29
2023-05-19T18:24:54.615Z,14.28
2023-05-19T18:30:02.418Z,14.25
2023-05-19T18:35:11.456Z,14.22
2023-05-19T18:40:19.300Z,14.20
2023-05-19T18:45:27.147Z,14.17
2023-05-19T18:50:35.036Z,14.13
2023-05-19T18:55:42.648Z,14.10
2023-05-19T19:00:51.093Z,14.07
2023-05-19T19:06:02.420Z,14.04
2023-05-19T19:11:11.742Z,14.01
2023-05-19T19:16:19.347Z,13.98
2023-05-19T19:21:26.749Z,13.95
2023-05-19T19:26:34.422Z,13.92
2023-05-19T19:31:41.963Z,13.90
2023-05-19T19:36:50.410Z,13.88
2023-05-19T19:41:57.981Z,13.86
2023-05-19T19:47:06.526Z,13.84
2023-05-19T19:52:14.223Z,13.83
2023-05-19T19:57:21.981Z,13.81
2023-05-19T20:02:29.668Z,13.79
2023-05-19T20:07:38.236Z,13.77
2023-05-19T20:12:48.313Z,13.76
2023-05-19T20:17:56.003Z,13.74
2023-05-19T20:23:03.553Z,13.73
2023-05-19T20:28:11.090Z,13.71
2023-05-19T20:33:18.592Z,13.70
2023-05-19T20:38:26.322Z,13.69
2023-05-19T20:43:34.141Z,13.68
2023-05-19T20:48:41.716Z,13.67
2023-05-19T20:53:49.388Z,13.65
2023-05-19T20:58:56.914Z,13.64
2023-05-19T21:04:08.268Z,13.64
2023-05-19T21:09:16.072Z,13.63
2023-05-19T21:14:23.970Z,13.62
2023-05-19T21:19:37.578Z,13.61
2023-05-19T21:24:44.933Z,13.61
2023-05-19T21:29:54.851Z,13.61
2023-05-19T21:35:02.750Z,13.60
2023-05-19T21:40:12.078Z,13.60
2023-05-19T21:45:19.829Z,13.58
2023-05-19T21:50:27.526Z,13.58
2023-05-19T21:55:36.364Z,13.59
2023-05-19T22:00:44.480Z,13.59
2023-05-19T22:05:54.236Z,13.58
2023-05-19T22:11:01.667Z,13.58
2023-05-19T22:16:09.761Z,13.59
2023-05-19T22:21:17.167Z,13.59
2023-05-19T22:26:24.828Z,13.60
2023-05-19T22:31:32.968Z,13.60
2023-05-19T22:36:41.667Z,13.60
2023-05-19T22:41:49.025Z,13.61
2023-05-19T22:46:56.664Z,13.61
2023-05-19T22:52:04.025Z,13.61
2023-05-19T22:57:12.374Z,13.62
2023-05-19T23:02:20.239Z,13.63
2023-05-19T23:07:27.964Z,13.63
2023-05-19T23:12:35.761Z,13.64
2023-05-19T23:17:43.246Z,13.64
2023-05-19T23:22:50.792Z,13.64
2023-05-19T23:27:58.151Z,13.64
2023-05-19T23:33:05.799Z,13.63
2023-05-19T23:38:13.903Z,13.63
2023-05-19T23:43:21.753Z,13.62
2023-05-19T23:48:29.718Z,13.62
2023-05-19T23:53:37.405Z,13.62
2023-05-19T23:58:45.238Z,13.62
